createdAt,value
2022-07-29T00:01:19.942Z,37.62
2022-07-29T00:03:48.299Z,37.75
2022-07-29T00:06:16.901Z,37.77
2022-07-29T00:08:44.822Z,37.76
2022-07-29T00:11:12.634Z,38.15
2022-07-29T00:13:40.614Z,38.36
2022-07-29T00:16:08.543Z,38.10
2022-07-29T00:18:36.339Z,38.38
2022-07-29T00:21:04.117Z,38.51
2022-07-29T00:23:36.455Z,38.66
2022-07-29T00:26:04.908Z,38.93
2022-07-29T00:28:32.822Z,39.13
2022-07-29T00:31:01.622Z,39.00
2022-07-29T00:33:30.003Z,39.18
2022-07-29T00:35:57.770Z,39.45
2022-07-29T00:38:25.549Z,39.41
2022-07-29T00:40:53.472Z,39.71
2022-07-29T00:43:22.166Z,39.83
2022-07-29T00:45:49.871Z,39.95
2022-07-29T00:48:17.638Z,40.08
2022-07-29T00:50:45.435Z,40.06
2022-07-29T00:53:13.674Z,40.28
2022-07-29T00:55:41.492Z,40.35
2022-07-29T00:58:12.610Z,40.34
2022-07-29T01:00:41.714Z,40.50
2022-07-29T01:03:28.846Z,40.63
2022-07-29T01:05:56.940Z,40.81
2022-07-29T01:08:25.014Z,40.90
2022-07-29T01:10:54.060Z,41.01
2022-07-29T01:13:23.525Z,41.24
2022-07-29T01:16:00.100Z,41.29
2022-07-29T01:18:42.862Z,41.33
2022-07-29T01:21:51.016Z,41.24
2022-07-29T01:24:55.899Z,41.40
2022-07-29T01:27:48.256Z,41.42
2022-07-29T01:30:16.618Z,41.51
2022-07-29T01:32:51.069Z,41.60
2022-07-29T01:35:44.471Z,41.80
2022-07-29T01:38:18.570Z,41.87
2022-07-29T01:40:53.603Z,41.93
2022-07-29T01:43:41.102Z,41.98
2022-07-29T01:46:20.691Z,42.28
2022-07-29T01:48:55.964Z,42.38
2022-07-29T01:51:36.746Z,42.39
2022-07-29T01:54:33.480Z,42.34
2022-07-29T01:57:02.758Z,42.46
2022-07-29T01:59:31.916Z,42.88
2022-07-29T02:02:02.006Z,42.70
2022-07-29T02:04:31.105Z,42.66
2022-07-29T02:07:05.752Z,42.76
2022-07-29T02:09:37.230Z,42.76
2022-07-29T02:12:07.541Z,42.93
2022-07-29T02:14:43.225Z,42.99
2022-07-29T02:17:14.289Z,43.10
2022-07-29T02:19:45.715Z,43.10
2022-07-29T02:22:14.003Z,42.89
2022-07-29T02:24:42.868Z,43.21
2022-07-29T02:27:12.413Z,43.30
2022-07-29T02:29:41.509Z,43.16
2022-07-29T02:32:12.127Z,43.29
2022-07-29T02:34:40.965Z,43.63
2022-07-29T02:37:12.459Z,43.82
2022-07-29T02:39:43.308Z,43.79
2022-07-29T02:42:18.256Z,43.73
2022-07-29T02:44:46.228Z,43.99
2022-07-29T02:47:41.459Z,43.95
2022-07-29T02:50:34.826Z,43.96
2022-07-29T02:53:21.073Z,44.25
2022-07-29T02:56:02.854Z,44.21
2022-07-29T02:58:34.418Z,44.71
2022-07-29T03:01:20.996Z,44.67
2022-07-29T03:03:53.809Z,44.92
2022-07-29T03:06:31.035Z,45.07
2022-07-29T03:09:12.888Z,45.05
2022-07-29T03:11:49.347Z,45.25
2022-07-29T03:14:21.056Z,45.56
2022-07-29T03:16:50.478Z,45.88
2022-07-29T03:19:20.161Z,45.55
2022-07-29T03:21:48.404Z,45.72
2022-07-29T03:24:37.138Z,45.59
2022-07-29T03:27:05.745Z,45.97
2022-07-29T03:29:34.652Z,45.86
2022-07-29T03:32:08.732Z,46.12
2022-07-29T03:34:38.693Z,46.04
2022-07-29T03:37:07.347Z,46.10
2022-07-29T03:39:41.974Z,46.15
2022-07-29T03:42:13.918Z,46.21
2022-07-29T03:44:45.012Z,46.31
2022-07-29T03:47:16.121Z,46.13
2022-07-29T03:49:48.087Z,46.27
2022-07-29T03:52:16.345Z,46.44
2022-07-29T03:54:44.640Z,46.68
2022-07-29T03:57:13.173Z,46.77
2022-07-29T03:59:42.203Z,46.71
2022-07-29T04:02:12.617Z,46.87
2022-07-29T04:04:40.524Z,46.95
2022-07-29T04:07:12.278Z,47.15
2022-07-29T04:09:40.212Z,47.11
2022-07-29T04:12:08.354Z,47.25
2022-07-29T04:14:37.223Z,47.11
2022-07-29T04:17:05.807Z,47.31
2022-07-29T04:19:34.042Z,47.19
2022-07-29T04:22:02.677Z,47.62
2022-07-29T04:24:30.422Z,47.55
2022-07-29T04:26:58.356Z,47.82
2022-07-29T04:29:26.257Z,47.66
2022-07-29T04:31:53.998Z,47.57
2022-07-29T04:34:22.174Z,47.84
2022-07-29T04:36:49.927Z,47.90
2022-07-29T04:39:22.665Z,48.11
2022-07-29T04:41:52.548Z,48.11
2022-07-29T04:44:26.554Z,48.05
2022-07-29T04:46:58.198Z,47.84
2022-07-29T04:49:26.622Z,48.01
2022-07-29T04:51:54.850Z,48.20
2022-07-29T04:54:22.872Z,47.98
2022-07-29T04:56:53.044Z,47.95
2022-07-29T04:59:20.841Z,48.11
2022-07-29T05:01:48.778Z,48.34
2022-07-29T05:04:17.121Z,48.24
2022-07-29T05:06:45.178Z,48.34
2022-07-29T05:09:12.975Z,48.78
2022-07-29T05:11:40.860Z,48.55
2022-07-29T05:14:09.647Z,48.69
2022-07-29T05:16:37.766Z,48.99
2022-07-29T05:19:07.009Z,48.88
2022-07-29T05:21:36.499Z,48.80
2022-07-29T05:24:04.927Z,49.18
2022-07-29T05:26:32.673Z,48.84
2022-07-29T05:29:00.393Z,48.81
2022-07-29T05:31:28.382Z,48.92
2022-07-29T05:33:56.194Z,48.58
2022-07-29T05:36:23.937Z,48.25
2022-07-29T05:38:53.018Z,48.20
2022-07-29T05:41:21.169Z,48.22
2022-07-29T05:43:48.987Z,48.15
2022-07-29T05:46:17.101Z,48.16
2022-07-29T05:48:45.133Z,47.92
2022-07-29T05:51:13.100Z,48.24
2022-07-29T05:53:41.057Z,48.21
2022-07-29T05:56:09.038Z,47.91
2022-07-29T05:58:37.206Z,48.07
2022-07-29T06:01:05.927Z,47.78
2022-07-29T06:03:33.909Z,47.99
2022-07-29T06:06:01.927Z,47.82
2022-07-29T06:08:29.791Z,47.83
2022-07-29T06:10:57.682Z,47.83
2022-07-29T06:13:25.361Z,47.51
2022-07-29T06:15:53.297Z,47.45
2022-07-29T06:18:21.859Z,47.40
2022-07-29T06:20:49.650Z,47.01
2022-07-29T06:23:18.470Z,46.91
2022-07-29T06:25:46.862Z,46.91
2022-07-29T06:28:14.895Z,46.63
2022-07-29T06:30:42.695Z,46.23
2022-07-29T06:33:10.735Z,45.92
2022-07-29T06:35:41.756Z,45.69
2022-07-29T06:38:31.648Z,45.36
2022-07-29T06:41:06.862Z,44.84
2022-07-29T06:43:50.830Z,44.71
2022-07-29T06:46:23.854Z,44.53
2022-07-29T06:48:53.359Z,44.12
2022-07-29T06:51:23.266Z,44.02
2022-07-29T06:53:59.822Z,43.64
2022-07-29T06:56:39.239Z,43.45
2022-07-29T06:59:10.569Z,43.17
2022-07-29T07:01:43.799Z,43.01
2022-07-29T07:04:13.172Z,43.04
2022-07-29T07:06:41.442Z,42.72
2022-07-29T07:09:09.552Z,42.80
2022-07-29T07:11:37.352Z,42.35
2022-07-29T07:14:05.161Z,42.13
2022-07-29T07:16:33.574Z,41.79
2022-07-29T07:19:01.764Z,41.66
2022-07-29T07:21:31.000Z,41.51
2022-07-29T07:24:00.219Z,41.61
2022-07-29T07:26:28.854Z,41.25
2022-07-29T07:28:56.776Z,41.07
2022-07-29T07:31:24.725Z,41.33
2022-07-29T07:33:54.560Z,40.81
2022-07-29T07:36:23.413Z,40.70
2022-07-29T07:38:51.297Z,40.57
2022-07-29T07:41:19.436Z,40.33
2022-07-29T07:43:47.611Z,40.33
2022-07-29T07:46:17.167Z,40.31
2022-07-29T07:48:45.474Z,39.79
2022-07-29T07:51:13.567Z,39.64
2022-07-29T07:53:41.539Z,39.38
2022-07-29T07:56:11.844Z,39.61
2022-07-29T07:58:40.345Z,39.39
2022-07-29T08:01:09.724Z,39.50
2022-07-29T08:03:38.048Z,39.56
2022-07-29T08:06:06.886Z,39.52
2022-07-29T08:08:34.969Z,39.49
2022-07-29T08:11:09.140Z,39.28
2022-07-29T08:13:39.393Z,39.35
2022-07-29T08:16:16.322Z,38.83
2022-07-29T08:18:46.702Z,38.62
2022-07-29T08:21:18.517Z,38.63
2022-07-29T08:23:52.806Z,38.61
2022-07-29T08:26:26.294Z,38.41
2022-07-29T08:28:54.153Z,37.96
2022-07-29T08:31:23.525Z,37.67
2022-07-29T08:33:51.403Z,37.88
2022-07-29T08:36:21.829Z,37.89
2022-07-29T08:38:50.692Z,37.79
2022-07-29T08:41:20.878Z,37.71
2022-07-29T08:43:50.387Z,37.79
2022-07-29T08:46:19.865Z,37.59
2022-07-29T08:48:48.550Z,36.98
2022-07-29T08:51:20.391Z,36.81
2022-07-29T08:53:50.450Z,36.45
2022-07-29T08:56:20.366Z,35.84
2022-07-29T08:58:51.800Z,35.63
2022-07-29T09:01:36.434Z,35.24
2022-07-29T09:04:13.319Z,35.85
2022-07-29T09:06:48.457Z,35.29
2022-07-29T09:09:16.836Z,35.74
2022-07-29T09:11:45.386Z,35.23
2022-07-29T09:14:14.704Z,35.48
2022-07-29T09:16:55.485Z,35.00
2022-07-29T09:19:28.179Z,34.87
2022-07-29T09:21:58.835Z,34.76
2022-07-29T09:24:48.437Z,34.67
2022-07-29T09:27:23.226Z,34.88
2022-07-29T09:30:06.835Z,34.57
2022-07-29T09:32:54.543Z,34.19
2022-07-29T09:35:25.725Z,34.38
2022-07-29T09:37:54.425Z,34.17
2022-07-29T09:40:25.648Z,34.10
2022-07-29T09:42:57.837Z,34.02
2022-07-29T09:45:34.588Z,33.72
2022-07-29T09:48:35.409Z,33.52
2022-07-29T09:51:03.309Z,33.36
2022-07-29T09:53:40.776Z,33.17
2022-07-29T09:56:08.639Z,33.46
2022-07-29T09:58:37.847Z,33.12
2022-07-29T10:01:05.796Z,33.04
2022-07-29T10:03:51.053Z,32.88
2022-07-29T10:06:19.088Z,32.91
2022-07-29T10:08:47.868Z,32.59
2022-07-29T10:11:18.155Z,32.47
2022-07-29T10:13:49.094Z,32.41
2022-07-29T10:16:17.576Z,33.34
2022-07-29T10:18:47.703Z,32.61
2022-07-29T10:21:35.003Z,32.42
2022-07-29T10:24:05.173Z,31.99
2022-07-29T10:26:33.190Z,31.39
2022-07-29T10:29:02.932Z,31.19
2022-07-29T10:31:49.468Z,31.00
2022-07-29T10:35:03.081Z,31.09
2022-07-29T10:38:27.391Z,31.09
2022-07-29T10:41:25.685Z,30.80
2022-07-29T10:44:00.255Z,30.87
2022-07-29T10:46:29.542Z,30.31
2022-07-29T10:49:30.598Z,30.50
2022-07-29T10:52:06.909Z,31.35
2022-07-29T10:54:42.292Z,30.88
2022-07-29T10:57:17.189Z,30.71
2022-07-29T11:00:16.926Z,30.89
2022-07-29T11:02:49.849Z,30.70
2022-07-29T11:05:22.083Z,30.58
2022-07-29T11:08:25.977Z,30.26
2022-07-29T11:11:22.246Z,30.60
2022-07-29T11:13:56.054Z,30.47
2022-07-29T11:16:25.591Z,30.49
2022-07-29T11:19:13.236Z,30.13
2022-07-29T11:24:34.894Z,30.37
2022-07-29T11:27:20.020Z,30.47
2022-07-29T11:30:03.346Z,30.21
2022-07-29T11:32:48.401Z,29.95
2022-07-29T11:35:38.382Z,29.71
2022-07-29T11:38:29.271Z,30.10
2022-07-29T11:44:06.398Z,29.76
2022-07-29T11:46:53.967Z,29.58
2022-07-29T11:49:32.263Z,29.39
2022-07-29T11:52:02.662Z,28.93
2022-07-29T11:54:38.703Z,29.32
2022-07-29T11:57:36.062Z,29.47
2022-07-29T12:00:12.215Z,29.01
2022-07-29T12:02:48.759Z,28.93
2022-07-29T12:05:35.912Z,29.10
2022-07-29T12:07:01.817Z,29.78
2022-07-29T12:08:20.671Z,29.09
2022-07-29T12:10:53.156Z,28.54
2022-07-29T12:13:22.933Z,28.28
2022-07-29T12:16:05.681Z,28.10
2022-07-29T12:18:33.785Z,28.30
2022-07-29T12:21:05.997Z,28.42
2022-07-29T12:23:35.582Z,27.92
2022-07-29T12:26:11.049Z,28.21
2022-07-29T12:28:50.170Z,27.97
2022-07-29T12:31:43.538Z,27.83
2022-07-29T12:34:06.491Z,27.84
2022-07-29T12:36:34.596Z,27.74
2022-07-29T12:39:02.933Z,27.82
2022-07-29T12:41:31.730Z,27.55
2022-07-29T12:44:00.279Z,27.90
2022-07-29T12:46:28.327Z,27.68
2022-07-29T12:48:57.589Z,27.70
2022-07-29T12:51:33.747Z,27.51
2022-07-29T12:54:14.510Z,27.33
2022-07-29T12:56:45.720Z,27.50
2022-07-29T12:59:20.149Z,27.28
2022-07-29T13:01:51.098Z,27.01
2022-07-29T13:04:33.902Z,27.30
2022-07-29T13:07:09.259Z,27.08
2022-07-29T13:09:42.051Z,27.19
2022-07-29T13:12:12.867Z,27.29
2022-07-29T13:14:47.040Z,27.11
2022-07-29T13:17:21.697Z,27.21
2022-07-29T13:19:53.724Z,26.81
2022-07-29T13:22:25.517Z,26.42
2022-07-29T13:24:56.908Z,26.55
2022-07-29T13:27:29.432Z,26.19
2022-07-29T13:29:59.169Z,26.40
2022-07-29T13:32:29.766Z,26.14
2022-07-29T13:35:00.411Z,26.33
2022-07-29T13:37:30.637Z,26.12
2022-07-29T13:40:00.070Z,26.16
2022-07-29T13:42:28.277Z,25.38
2022-07-29T13:44:56.121Z,25.70
2022-07-29T13:47:32.426Z,25.45
2022-07-29T13:50:02.719Z,25.66
2022-07-29T13:52:31.387Z,25.24
2022-07-29T13:54:59.238Z,25.34
2022-07-29T13:57:27.265Z,25.28
2022-07-29T13:59:55.281Z,25.09
2022-07-29T14:02:25.248Z,24.80
2022-07-29T14:04:54.883Z,25.50
2022-07-29T14:07:23.860Z,25.09
2022-07-29T14:09:52.183Z,24.55
2022-07-29T14:12:20.481Z,24.11
2022-07-29T14:14:48.229Z,24.14
2022-07-29T14:17:16.898Z,23.95
2022-07-29T14:19:44.690Z,23.75
2022-07-29T14:22:12.487Z,23.75
2022-07-29T14:24:41.024Z,23.55
2022-07-29T14:27:09.326Z,23.50
2022-07-29T14:29:38.805Z,23.47
2022-07-29T14:32:11.333Z,23.83
2022-07-29T14:34:40.547Z,23.37
2022-07-29T14:37:09.364Z,23.77
2022-07-29T14:39:42.864Z,23.34
2022-07-29T14:42:12.813Z,23.28
2022-07-29T14:44:44.651Z,23.08
2022-07-29T14:47:12.577Z,23.24
2022-07-29T14:49:40.609Z,22.95
2022-07-29T14:52:08.403Z,23.11
2022-07-29T14:54:36.177Z,22.82
2022-07-29T14:57:03.928Z,22.80
2022-07-29T14:59:31.711Z,22.64
2022-07-29T15:02:00.068Z,22.72
2022-07-29T15:04:28.184Z,22.89
2022-07-29T15:06:56.184Z,22.83
2022-07-29T15:09:24.157Z,22.35
2022-07-29T15:11:52.291Z,22.85
2022-07-29T15:14:20.007Z,22.09
2022-07-29T15:16:48.338Z,22.42
2022-07-29T15:19:16.545Z,22.22
2022-07-29T15:21:48.402Z,22.47
2022-07-29T15:24:17.943Z,22.30
2022-07-29T15:26:46.842Z,22.34
2022-07-29T15:29:15.669Z,22.25
2022-07-29T15:31:44.450Z,22.05
2022-07-29T15:34:12.384Z,22.08
2022-07-29T15:36:55.776Z,21.96
2022-07-29T15:39:23.818Z,22.10
2022-07-29T15:41:52.112Z,21.93
2022-07-29T15:44:21.328Z,22.09
2022-07-29T15:47:06.147Z,21.72
2022-07-29T15:49:48.336Z,21.73
2022-07-29T15:52:26.181Z,21.80
2022-07-29T15:54:56.375Z,21.65
2022-07-29T15:57:25.010Z,21.31
2022-07-29T15:59:53.154Z,21.90
2022-07-29T16:02:21.209Z,21.54
2022-07-29T16:04:49.090Z,21.70
2022-07-29T16:07:17.234Z,21.58
2022-07-29T16:09:50.832Z,21.55
2022-07-29T16:12:20.911Z,21.17
2022-07-29T16:14:50.995Z,21.26
2022-07-29T16:17:19.493Z,21.33
2022-07-29T16:19:47.450Z,21.23
2022-07-29T16:22:15.423Z,21.11
2022-07-29T16:24:43.334Z,21.09
2022-07-29T16:27:11.205Z,21.24
2022-07-29T16:29:39.582Z,21.30
2022-07-29T16:32:07.484Z,21.00
2022-07-29T16:34:35.288Z,21.06
2022-07-29T16:37:03.681Z,21.25
2022-07-29T16:39:31.785Z,21.13
2022-07-29T16:42:01.548Z,21.40
2022-07-29T16:44:31.018Z,20.84
2022-07-29T16:47:00.453Z,20.78
2022-07-29T16:49:29.115Z,21.07
2022-07-29T16:51:57.078Z,21.20
2022-07-29T16:54:25.077Z,21.18
2022-07-29T16:56:53.263Z,21.12
2022-07-29T16:59:21.313Z,20.85
2022-07-29T17:01:49.725Z,20.98
2022-07-29T17:04:17.646Z,20.79
2022-07-29T17:06:45.591Z,21.01
2022-07-29T17:09:16.965Z,20.79
2022-07-29T17:11:53.654Z,20.63
2022-07-29T17:14:27.144Z,20.30
2022-07-29T17:17:01.226Z,20.67
2022-07-29T17:19:35.422Z,20.44
2022-07-29T17:22:13.032Z,20.58
2022-07-29T17:24:47.933Z,20.29
2022-07-29T17:27:16.409Z,20.93
2022-07-29T17:29:46.618Z,20.77
2022-07-29T17:32:14.513Z,21.08
2022-07-29T17:34:43.152Z,21.28
2022-07-29T17:37:12.473Z,21.37
2022-07-29T17:39:42.276Z,21.08
2022-07-29T17:42:13.603Z,21.04
2022-07-29T17:44:41.940Z,21.05
2022-07-29T17:47:15.871Z,20.69
2022-07-29T17:49:47.827Z,20.15
2022-07-29T17:52:17.928Z,20.21
2022-07-29T17:54:45.767Z,20.13
2022-07-29T17:57:13.908Z,19.81
2022-07-29T17:59:41.634Z,19.66
2022-07-29T18:02:09.968Z,19.98
2022-07-29T18:04:37.763Z,19.73
2022-07-29T18:07:05.740Z,19.85
2022-07-29T18:09:33.462Z,19.87
2022-07-29T18:12:01.296Z,20.04
2022-07-29T18:14:29.190Z,20.22
2022-07-29T18:16:57.175Z,20.10
2022-07-29T18:19:25.269Z,20.26
2022-07-29T18:21:54.415Z,20.58
2022-07-29T18:24:27.580Z,20.45
2022-07-29T18:26:56.386Z,20.85
2022-07-29T18:29:24.570Z,20.71
2022-07-29T18:31:52.386Z,20.83
2022-07-29T18:34:20.236Z,21.05
2022-07-29T18:36:48.027Z,21.06
2022-07-29T18:39:20.689Z,21.19
2022-07-29T18:41:51.383Z,21.16
2022-07-29T18:44:21.810Z,21.55
2022-07-29T18:46:52.217Z,21.74
2022-07-29T18:49:20.477Z,22.12
2022-07-29T18:51:49.824Z,22.22
2022-07-29T18:54:17.975Z,22.50
2022-07-29T18:56:47.087Z,22.91
2022-07-29T18:59:17.063Z,22.96
2022-07-29T19:01:45.752Z,23.03
2022-07-29T19:04:13.680Z,23.38
2022-07-29T19:06:41.732Z,23.69
2022-07-29T19:09:10.302Z,23.68
2022-07-29T19:11:39.007Z,23.84
2022-07-29T19:14:07.366Z,24.25
2022-07-29T19:16:35.398Z,24.35
2022-07-29T19:19:03.840Z,24.70
2022-07-29T19:21:32.189Z,24.88
2022-07-29T19:24:06.718Z,24.90
2022-07-29T19:26:38.570Z,24.82
2022-07-29T19:29:06.352Z,25.31
2022-07-29T19:31:34.351Z,25.37
2022-07-29T19:34:02.279Z,25.55
2022-07-29T19:36:31.299Z,25.69
2022-07-29T19:39:00.452Z,25.59
2022-07-29T19:41:28.493Z,26.06
2022-07-29T19:43:57.116Z,25.98
2022-07-29T19:46:28.675Z,26.29
2022-07-29T19:48:57.239Z,26.36
2022-07-29T19:51:25.506Z,26.84
2022-07-29T19:53:53.533Z,26.92
2022-07-29T19:56:21.741Z,26.75
2022-07-29T19:58:52.537Z,27.18
2022-07-29T20:01:20.790Z,27.59
2022-07-29T20:03:48.905Z,27.33
2022-07-29T20:06:16.955Z,27.69
2022-07-29T20:08:45.422Z,28.09
2022-07-29T20:11:13.355Z,27.80
2022-07-29T20:13:41.421Z,28.30
2022-07-29T20:16:09.386Z,28.01
2022-07-29T20:18:37.543Z,28.02
2022-07-29T20:21:05.515Z,28.35
2022-07-29T20:23:33.782Z,28.77
2022-07-29T20:26:06.110Z,28.63
2022-07-29T20:28:37.227Z,28.51
2022-07-29T20:31:05.129Z,28.77
2022-07-29T20:33:33.040Z,28.73
2022-07-29T20:36:00.892Z,29.27
2022-07-29T20:38:30.548Z,29.08
2022-07-29T20:40:58.875Z,29.29
2022-07-29T20:43:27.232Z,29.03
2022-07-29T20:45:55.206Z,29.49
2022-07-29T20:48:23.196Z,29.54
2022-07-29T20:50:51.497Z,29.59
2022-07-29T20:53:20.410Z,29.39
2022-07-29T20:55:48.322Z,29.77
2022-07-29T20:58:16.171Z,30.16
2022-07-29T21:00:44.055Z,30.15
2022-07-29T21:03:11.981Z,30.03
2022-07-29T21:05:43.203Z,30.49
2022-07-29T21:08:12.161Z,30.45
2022-07-29T21:10:39.928Z,30.70
2022-07-29T21:13:07.804Z,30.79
2022-07-29T21:15:36.018Z,31.22
2022-07-29T21:18:05.979Z,31.06
2022-07-29T21:20:33.853Z,31.37
2022-07-29T21:23:01.851Z,31.58
2022-07-29T21:25:29.664Z,31.86
2022-07-29T21:28:16.074Z,31.97
2022-07-29T21:30:44.032Z,31.71
2022-07-29T21:33:11.832Z,31.88
2022-07-29T21:36:10.579Z,32.22
2022-07-29T21:38:28.274Z,32.18
2022-07-29T21:40:57.579Z,32.09
2022-07-29T21:43:26.684Z,32.71
2022-07-29T21:45:56.065Z,32.71
2022-07-29T21:48:26.657Z,33.15
2022-07-29T21:50:54.679Z,32.99
2022-07-29T21:53:22.952Z,33.30
2022-07-29T21:55:54.276Z,33.53
2022-07-29T21:58:23.697Z,33.33
2022-07-29T22:00:52.772Z,33.43
2022-07-29T22:03:20.599Z,33.79
2022-07-29T22:05:48.355Z,33.86
2022-07-29T22:08:16.303Z,33.93
2022-07-29T22:10:44.268Z,33.87
2022-07-29T22:13:12.080Z,34.01
2022-07-29T22:15:45.369Z,34.31
2022-07-29T22:18:20.577Z,34.39
2022-07-29T22:20:51.751Z,34.05
2022-07-29T22:23:19.890Z,34.37
2022-07-29T22:25:47.770Z,34.54
2022-07-29T22:28:15.486Z,34.47
2022-07-29T22:30:43.276Z,34.72
2022-07-29T22:33:18.094Z,34.46
2022-07-29T22:35:48.819Z,34.69
2022-07-29T22:38:19.850Z,34.81
2022-07-29T22:40:48.583Z,34.91
2022-07-29T22:43:16.871Z,34.79
2022-07-29T22:45:44.648Z,35.06
2022-07-29T22:48:12.458Z,35.26
2022-07-29T22:50:40.368Z,35.29
2022-07-29T22:53:08.146Z,35.25
2022-07-29T22:55:35.901Z,35.15
2022-07-29T22:58:03.677Z,35.17
2022-07-29T23:00:31.591Z,35.30
2022-07-29T23:02:59.524Z,35.59
2022-07-29T23:05:27.423Z,35.47
2022-07-29T23:07:55.622Z,35.46
2022-07-29T23:10:23.489Z,35.85
2022-07-29T23:12:51.186Z,36.03
2022-07-29T23:15:19.715Z,36.01
2022-07-29T23:17:47.867Z,36.09
2022-07-29T23:20:15.776Z,36.17
2022-07-29T23:22:43.654Z,36.35
2022-07-29T23:25:11.757Z,36.40
2022-07-29T23:27:40.011Z,36.46
2022-07-29T23:30:09.179Z,36.59
2022-07-29T23:32:37.162Z,36.72
2022-07-29T23:35:06.942Z,36.74
2022-07-29T23:37:35.124Z,37.15
2022-07-29T23:40:04.431Z,36.92
2022-07-29T23:42:32.370Z,37.19
2022-07-29T23:45:00.458Z,37.21
2022-07-29T23:47:29.009Z,37.31
2022-07-29T23:49:57.080Z,37.40
2022-07-29T23:52:24.813Z,37.62
2022-07-29T23:54:52.752Z,37.66
2022-07-29T23:57:24.410Z,37.71
2022-07-29T23:59:52.946Z,37.82
